Time;durP1;ratioP1;P1;durP2;ratioP2;P2;SDS_P1;SDS_P2;PMS_P1;PMS_P2;Temp;Humidity;BMP_temperature;BMP_pressure;BME280_temperature;BME280_humidity;BME280_pressure;Samples;Min_cycle;Max_cycle;Signal;HPM_P1;HPM_P2
2022/09/04 00:01:00;;;;;;;21.45;8.98;;;;;;;;;;4991113;28;20047;-72
2022/09/04 00:04:16;;;;;;;16.98;8.45;;;;;;;;;;4991096;28;20448;-72
2022/09/04 00:07:29;;;;;;;19.95;8.88;;;;;;;;;;4991181;28;20046;-72
2022/09/04 00:10:37;;;;;;;16.40;8.45;;;;;;;;;;4991379;28;20035;-72
2022/09/04 00:13:59;;;;;;;19.58;10.60;;;;;;;;;;4991355;28;20038;-72
2022/09/04 00:17:07;;;;;;;28.27;10.95;;;;;;;;;;4990424;28;20061;-72
2022/09/04 00:20:28;;;;;;;19.00;9.18;;;;;;;;;;4991002;28;20046;-72
2022/09/04 00:24:11;;;;;;;17.38;8.95;;;;;;;;;;4991008;28;20034;-72
2022/09/04 00:27:23;;;;;;;18.15;9.15;;;;;;;;;;5012199;28;20041;-72
2022/09/04 00:30:27;;;;;;;14.48;8.00;;;;;;;;;;5000345;28;20049;-71
2022/09/04 00:33:47;;;;;;;21.52;10.73;;;;;;;;;;4995210;28;20418;-71
2022/09/04 00:36:53;;;;;;;18.23;8.70;;;;;;;;;;4995086;28;20489;-72
2022/09/04 00:40:04;;;;;;;15.45;7.63;;;;;;;;;;4995013;28;20038;-72
2022/09/04 00:43:11;;;;;;;18.90;7.82;;;;;;;;;;5005498;28;20051;-71
2022/09/04 00:46:36;;;;;;;17.48;8.02;;;;;;;;;;4994975;28;20034;-72
2022/09/04 00:49:43;;;;;;;15.40;8.15;;;;;;;;;;4994976;28;20042;-71
2022/09/04 00:52:53;;;;;;;16.45;8.82;;;;;;;;;;4994950;28;20050;-71
2022/09/04 00:56:06;;;;;;;20.53;9.27;;;;;;;;;;4994855;28;20034;-71
2022/09/04 00:59:11;;;;;;;18.40;9.30;;;;;;;;;;5004987;28;20049;-72
2022/09/04 01:02:27;;;;;;;21.80;9.57;;;;;;;;;;4994810;28;20042;-72
2022/09/04 01:05:39;;;;;;;19.02;9.85;;;;;;;;;;4994775;28;20059;-72
2022/09/04 01:09:01;;;;;;;20.60;10.68;;;;;;;;;;5004835;28;20041;-71
2022/09/04 01:12:09;;;;;;;19.23;9.90;;;;;;;;;;4994420;28;20053;-72
2022/09/04 01:15:24;;;;;;;21.85;10.30;;;;;;;;;;4994371;28;20063;-71
2022/09/04 01:18:29;;;;;;;24.88;11.20;;;;;;;;;;4994096;28;20057;-71
2022/09/04 01:21:52;;;;;;;26.27;10.30;;;;;;;;;;4982414;28;20057;-72
2022/09/04 01:25:00;;;;;;;19.25;10.50;;;;;;;;;;4994289;28;20062;-72
2022/09/04 01:28:17;;;;;;;22.55;10.38;;;;;;;;;;4994313;28;20042;-72
2022/09/04 01:31:31;;;;;;;19.50;10.25;;;;;;;;;;4994029;28;20061;-72
2022/09/04 01:34:41;;;;;;;19.50;10.57;;;;;;;;;;4993885;28;20289;-71
2022/09/04 01:38:06;;;;;;;23.75;10.60;;;;;;;;;;4993180;28;20065;-71
2022/09/04 01:41:10;;;;;;;17.27;10.45;;;;;;;;;;4994135;28;20061;-72
2022/09/04 01:44:15;;;;;;;21.45;10.55;;;;;;;;;;4993444;28;20061;-71
2022/09/04 01:47:28;;;;;;;21.63;11.55;;;;;;;;;;4994119;28;20041;-73
2022/09/04 01:50:32;;;;;;;17.55;11.20;;;;;;;;;;4992993;28;20053;-71
2022/09/04 01:53:40;;;;;;;18.10;10.80;;;;;;;;;;4993705;28;20513;-74
2022/09/04 01:56:47;;;;;;;25.83;10.48;;;;;;;;;;4993887;28;20054;-71
2022/09/04 01:59:59;;;;;;;20.38;11.02;;;;;;;;;;4993061;28;20037;-72
2022/09/04 02:03:06;;;;;;;23.85;11.38;;;;;;;;;;4992800;28;20049;-71
2022/09/04 02:06:16;;;;;;;21.25;11.10;;;;;;;;;;4993613;28;20069;-72
2022/09/04 02:09:23;;;;;;;18.55;10.75;;;;;;;;;;4993734;28;20049;-72
2022/09/04 02:12:33;;;;;;;18.85;10.52;;;;;;;;;;4992498;28;20053;-71
2022/09/04 02:15:43;;;;;;;23.55;11.18;;;;;;;;;;4992047;28;20049;-72
2022/09/04 02:18:47;;;;;;;21.53;11.67;;;;;;;;;;4992938;28;20059;-72
2022/09/04 02:22:03;;;;;;;19.20;11.23;;;;;;;;;;4993273;28;20320;-72
2022/09/04 02:25:10;;;;;;;19.90;11.25;;;;;;;;;;4991829;28;20061;-71
2022/09/04 02:28:33;;;;;;;19.33;12.82;;;;;;;;;;4992080;28;20045;-71
2022/09/04 02:31:48;;;;;;;17.45;10.65;;;;;;;;;;4993029;28;20049;-71
2022/09/04 02:35:01;;;;;;;22.77;12.65;;;;;;;;;;4992941;28;20049;-71
2022/09/04 02:38:06;;;;;;;24.33;12.18;;;;;;;;;;4992343;28;20567;-71
2022/09/04 02:41:29;;;;;;;19.00;11.30;;;;;;;;;;4992935;28;20438;-71
2022/09/04 02:44:54;;;;;;;20.27;11.43;;;;;;;;;;4992379;28;20058;-72
2022/09/04 02:48:08;;;;;;;17.70;10.52;;;;;;;;;;4991678;28;20598;-71
2022/09/04 02:51:12;;;;;;;18.58;11.25;;;;;;;;;;4991830;28;20050;-71
2022/09/04 02:54:25;;;;;;;20.88;10.48;;;;;;;;;;4992238;28;20054;-72
2022/09/04 02:57:38;;;;;;;20.45;10.60;;;;;;;;;;4992556;28;20042;-72
2022/09/04 03:00:52;;;;;;;18.80;10.93;;;;;;;;;;4992361;28;20152;-71
2022/09/04 03:04:02;;;;;;;21.02;10.95;;;;;;;;;;4992337;28;20057;-71
2022/09/04 03:07:16;;;;;;;16.13;9.93;;;;;;;;;;4991615;28;20046;-71
2022/09/04 03:10:22;;;;;;;21.52;10.23;;;;;;;;;;4992356;28;20068;-73
2022/09/04 03:13:28;;;;;;;14.35;9.38;;;;;;;;;;4992073;28;20042;-72
2022/09/04 03:16:45;;;;;;;19.35;8.93;;;;;;;;;;5002570;28;20041;-73
2022/09/04 03:20:09;;;;;;;16.70;8.35;;;;;;;;;;4991428;28;20054;-73
2022/09/04 03:23:21;;;;;;;19.13;9.52;;;;;;;;;;4992126;28;20529;-73
2022/09/04 03:26:43;;;;;;;18.15;9.88;;;;;;;;;;4992118;28;20095;-72
2022/09/04 03:29:55;;;;;;;17.98;9.90;;;;;;;;;;4991705;28;20043;-72
2022/09/04 03:33:02;;;;;;;18.40;9.88;;;;;;;;;;4991859;28;20498;-72
2022/09/04 03:36:11;;;;;;;21.40;9.65;;;;;;;;;;4991885;28;20034;-72
2022/09/04 03:39:24;;;;;;;14.25;8.63;;;;;;;;;;4992074;28;20057;-72
2022/09/04 03:42:48;;;;;;;13.75;8.50;;;;;;;;;;4991882;28;20494;-72
2022/09/04 03:45:52;;;;;;;16.63;8.48;;;;;;;;;;5002316;28;20517;-72
2022/09/04 03:49:15;;;;;;;18.10;8.30;;;;;;;;;;4992458;28;20030;-73
2022/09/04 03:52:19;;;;;;;15.10;7.97;;;;;;;;;;4992152;28;20375;-72
2022/09/04 03:55:33;;;;;;;18.27;7.78;;;;;;;;;;4991482;28;20398;-73
2022/09/04 03:59:00;;;;;;;14.98;7.75;;;;;;;;;;4991806;28;20046;-73
2022/09/04 04:02:16;;;;;;;14.88;8.10;;;;;;;;;;5002140;28;20055;-72
2022/09/04 04:05:24;;;;;;;16.02;8.27;;;;;;;;;;5001764;28;20038;-73
2022/09/04 04:08:50;;;;;;;14.85;8.35;;;;;;;;;;4991693;28;20038;-72
2022/09/04 04:11:58;;;;;;;13.98;8.30;;;;;;;;;;4991591;28;20053;-73
2022/09/04 04:15:26;;;;;;;15.20;8.35;;;;;;;;;;4990770;28;20038;-72
2022/09/04 04:18:39;;;;;;;16.27;9.00;;;;;;;;;;4991119;28;20061;-72
2022/09/04 04:21:56;;;;;;;17.80;8.27;;;;;;;;;;4991432;28;20089;-72
2022/09/04 04:25:22;;;;;;;14.55;8.80;;;;;;;;;;4990243;28;20426;-73
2022/09/04 04:28:37;;;;;;;14.50;8.48;;;;;;;;;;4991552;28;20038;-73
2022/09/04 04:32:09;;;;;;;14.02;7.75;;;;;;;;;;4990566;28;20042;-72
2022/09/04 04:35:43;;;;;;;12.70;7.38;;;;;;;;;;4991175;28;20426;-73
2022/09/04 04:38:51;;;;;;;12.88;8.25;;;;;;;;;;5001912;28;20497;-73
2022/09/04 04:42:04;;;;;;;12.95;8.23;;;;;;;;;;5001844;28;20057;-73
2022/09/04 04:48:42;;;;;;;14.63;9.27;;;;;;;;;;4991414;28;20042;-73
2022/09/04 04:51:58;;;;;;;15.32;8.52;;;;;;;;;;4991075;28;20419;-73
2022/09/04 04:55:12;;;;;;;13.80;8.52;;;;;;;;;;4991161;28;20049;-72
2022/09/04 04:58:16;;;;;;;13.38;7.15;;;;;;;;;;4991361;28;20046;-73
2022/09/04 05:01:20;;;;;;;10.95;7.28;;;;;;;;;;4991322;28;20046;-73
2022/09/04 05:04:33;;;;;;;14.93;8.13;;;;;;;;;;4990722;28;20126;-72
2022/09/04 05:07:51;;;;;;;15.88;7.68;;;;;;;;;;4991022;28;20507;-72
2022/09/04 05:11:00;;;;;;;13.10;7.82;;;;;;;;;;4991228;28;20042;-72
2022/09/04 05:14:24;;;;;;;13.63;7.22;;;;;;;;;;5005007;28;20046;-73
2022/09/04 05:17:37;;;;;;;14.13;7.47;;;;;;;;;;4994037;28;20046;-73
2022/09/04 05:20:45;;;;;;;18.85;7.13;;;;;;;;;;4994248;28;20046;-72
2022/09/04 05:24:08;;;;;;;14.82;7.22;;;;;;;;;;4993450;28;20046;-72
2022/09/04 05:27:32;;;;;;;15.95;7.22;;;;;;;;;;4994035;28;20046;-72
2022/09/04 05:30:51;;;;;;;11.98;6.55;;;;;;;;;;4994232;28;20431;-73
2022/09/04 05:33:59;;;;;;;14.10;7.40;;;;;;;;;;5004672;28;20050;-73
2022/09/04 05:37:16;;;;;;;13.43;7.05;;;;;;;;;;4993117;28;20054;-73
2022/09/04 05:40:23;;;;;;;32.83;10.45;;;;;;;;;;4994222;28;20509;-73
2022/09/04 05:43:37;;;;;;;27.70;10.43;;;;;;;;;;4993389;28;20049;-73
2022/09/04 05:46:52;;;;;;;29.73;10.80;;;;;;;;;;4993093;28;20517;-73
2022/09/04 05:50:07;;;;;;;29.20;10.55;;;;;;;;;;4993831;28;20037;-73
2022/09/04 05:53:35;;;;;;;20.08;9.80;;;;;;;;;;4992937;28;20053;-73
2022/09/04 05:56:55;;;;;;;22.70;10.30;;;;;;;;;;4997122;28;20042;-73
2022/09/04 06:00:08;;;;;;;18.65;9.70;;;;;;;;;;4992645;28;20402;-73
2022/09/04 06:03:36;;;;;;;23.67;12.00;;;;;;;;;;4993629;28;20038;-73
2022/09/04 06:06:47;;;;;;;25.50;11.70;;;;;;;;;;4993205;28;20049;-73
2022/09/04 06:09:59;;;;;;;26.33;11.05;;;;;;;;;;4993427;28;20276;-73
2022/09/04 06:13:09;;;;;;;25.13;11.88;;;;;;;;;;4993139;28;20045;-72
2022/09/04 06:16:32;;;;;;;20.77;11.38;;;;;;;;;;4993023;28;20539;-72
2022/09/04 06:19:55;;;;;;;22.67;11.48;;;;;;;;;;4992059;28;20061;-72
2022/09/04 06:23:08;;;;;;;26.05;12.13;;;;;;;;;;4992982;28;20394;-72
2022/09/04 06:26:22;;;;;;;22.00;10.88;;;;;;;;;;4993261;28;20050;-72
2022/09/04 06:29:26;;;;;;;20.60;11.25;;;;;;;;;;4993129;28;20508;-72
2022/09/04 06:32:49;;;;;;;25.55;12.00;;;;;;;;;;4993214;28;20050;-72
2022/09/04 06:35:53;;;;;;;29.08;12.05;;;;;;;;;;4993067;28;20046;-72
2022/09/04 06:39:04;;;;;;;16.88;10.63;;;;;;;;;;4991736;28;20034;-73
2022/09/04 06:42:15;;;;;;;24.55;11.05;;;;;;;;;;4991792;28;20045;-72
2022/09/04 06:45:25;;;;;;;28.10;12.00;;;;;;;;;;4991781;28;20057;-72
2022/09/04 06:48:32;;;;;;;26.52;12.20;;;;;;;;;;4992795;28;20046;-72
2022/09/04 06:52:02;;;;;;;18.08;11.10;;;;;;;;;;4992645;28;20053;-72
2022/09/04 06:55:15;;;;;;;20.83;12.10;;;;;;;;;;4992371;28;20500;-72
2022/09/04 06:58:38;;;;;;;20.20;11.35;;;;;;;;;;4991533;28;20042;-72
2022/09/04 07:01:49;;;;;;;15.93;10.18;;;;;;;;;;4992611;28;20049;-72
2022/09/04 07:05:08;;;;;;;19.90;11.83;;;;;;;;;;4992558;28;20501;-72
2022/09/04 07:08:39;;;;;;;22.27;11.15;;;;;;;;;;4991611;28;20041;-72
2022/09/04 07:11:43;;;;;;;15.40;8.88;;;;;;;;;;4991860;28;20045;-72
2022/09/04 07:14:54;;;;;;;16.83;8.48;;;;;;;;;;4992237;28;20395;-73
2022/09/04 07:18:16;;;;;;;16.65;7.18;;;;;;;;;;4992040;28;20061;-72
2022/09/04 07:21:38;;;;;;;15.02;6.22;;;;;;;;;;4991987;28;20045;-73
2022/09/04 07:24:42;;;;;;;15.85;6.15;;;;;;;;;;4991244;28;20410;-73
2022/09/04 07:28:05;;;;;;;13.52;5.85;;;;;;;;;;4991323;28;20046;-73
2022/09/04 07:31:13;;;;;;;14.30;6.03;;;;;;;;;;4992019;28;20059;-73
2022/09/04 07:34:17;;;;;;;10.48;5.65;;;;;;;;;;5001491;28;20038;-73
2022/09/04 07:37:42;;;;;;;12.15;6.15;;;;;;;;;;4991631;28;20042;-72
2022/09/04 07:40:52;;;;;;;13.10;6.15;;;;;;;;;;4990975;28;20035;-73
2022/09/04 07:44:15;;;;;;;13.35;7.10;;;;;;;;;;4991359;28;20057;-73
2022/09/04 07:47:19;;;;;;;15.00;6.80;;;;;;;;;;4991918;28;20053;-73
2022/09/04 07:50:25;;;;;;;10.93;6.45;;;;;;;;;;4991644;28;20034;-73
2022/09/04 07:53:33;;;;;;;13.45;6.45;;;;;;;;;;4979935;28;20046;-73
2022/09/04 07:56:40;;;;;;;13.60;6.45;;;;;;;;;;4990549;28;20042;-73
2022/09/04 07:59:45;;;;;;;11.23;5.97;;;;;;;;;;5002225;28;20042;-73
2022/09/04 08:03:10;;;;;;;12.00;6.82;;;;;;;;;;4991236;28;20042;-73
2022/09/04 08:06:21;;;;;;;13.48;5.53;;;;;;;;;;5002070;28;20046;-73
2022/09/04 08:09:37;;;;;;;12.55;5.60;;;;;;;;;;4990676;28;20042;-72
2022/09/04 08:13:08;;;;;;;13.65;5.88;;;;;;;;;;4991449;28;20156;-73
2022/09/04 08:16:23;;;;;;;13.07;5.43;;;;;;;;;;4991542;28;20230;-73
2022/09/04 08:19:39;;;;;;;11.85;5.43;;;;;;;;;;4991265;28;20379;-72
2022/09/04 08:22:46;;;;;;;17.17;6.63;;;;;;;;;;4991281;28;20042;-72
2022/09/04 08:26:22;;;;;;;14.40;6.30;;;;;;;;;;5001633;28;20061;-72
2022/09/04 08:29:45;;;;;;;13.93;6.82;;;;;;;;;;4989968;28;20046;-73
2022/09/04 08:33:02;;;;;;;16.20;7.88;;;;;;;;;;4991620;28;20050;-72
2022/09/04 08:36:12;;;;;;;21.98;8.80;;;;;;;;;;5001840;28;20049;-73
2022/09/04 08:39:35;;;;;;;14.02;7.20;;;;;;;;;;4991341;28;20046;-73
2022/09/04 08:42:39;;;;;;;13.43;8.30;;;;;;;;;;4991378;28;20042;-73
2022/09/04 08:45:58;;;;;;;24.67;7.85;;;;;;;;;;4991573;28;20053;-73
2022/09/04 08:49:13;;;;;;;15.13;7.30;;;;;;;;;;4994101;28;20043;-73
2022/09/04 08:52:26;;;;;;;13.55;7.57;;;;;;;;;;4994100;28;20045;-73
2022/09/04 08:55:49;;;;;;;20.73;8.50;;;;;;;;;;5005208;28;20030;-73
2022/09/04 08:59:12;;;;;;;19.85;8.30;;;;;;;;;;4994446;28;20035;-73
2022/09/04 09:02:35;;;;;;;15.07;8.52;;;;;;;;;;4993868;28;20042;-72
2022/09/04 09:06:05;;;;;;;15.20;7.18;;;;;;;;;;4994522;28;20046;-73
2022/09/04 09:09:28;;;;;;;11.35;6.32;;;;;;;;;;4996592;28;20045;-72
2022/09/04 09:12:36;;;;;;;12.65;7.75;;;;;;;;;;4994516;28;20041;-73
2022/09/04 09:15:47;;;;;;;15.68;7.13;;;;;;;;;;4994528;28;20053;-72
2022/09/04 09:18:57;;;;;;;11.75;6.47;;;;;;;;;;5004498;28;20045;-72
2022/09/04 09:22:04;;;;;;;13.80;7.63;;;;;;;;;;4994365;28;20402;-72
2022/09/04 09:25:19;;;;;;;16.15;6.97;;;;;;;;;;4993301;28;20038;-72
2022/09/04 09:28:29;;;;;;;10.63;6.65;;;;;;;;;;4994842;28;20045;-72
2022/09/04 09:31:37;;;;;;;13.57;6.88;;;;;;;;;;4993665;28;20042;-72
2022/09/04 09:34:59;;;;;;;15.02;7.63;;;;;;;;;;4993891;28;20049;-73
2022/09/04 09:38:12;;;;;;;14.38;8.18;;;;;;;;;;4994076;28;20042;-71
2022/09/04 09:41:31;;;;;;;13.73;7.88;;;;;;;;;;4993975;28;20042;-73
2022/09/04 09:44:41;;;;;;;13.73;7.93;;;;;;;;;;4993703;28;20156;-73
2022/09/04 09:47:57;;;;;;;16.08;7.45;;;;;;;;;;4993564;28;20045;-73
2022/09/04 09:51:14;;;;;;;16.00;7.32;;;;;;;;;;4993821;28;20525;-74
2022/09/04 09:54:18;;;;;;;16.90;7.75;;;;;;;;;;4993349;28;20399;-73
2022/09/04 09:57:35;;;;;;;15.68;7.20;;;;;;;;;;5003249;28;20065;-74
2022/09/04 10:00:45;;;;;;;17.75;8.10;;;;;;;;;;4993506;28;20051;-73
2022/09/04 10:04:08;;;;;;;12.73;7.23;;;;;;;;;;4993257;28;20398;-73
2022/09/04 10:07:36;;;;;;;15.20;8.02;;;;;;;;;;4993569;28;20406;-73
2022/09/04 10:10:50;;;;;;;15.77;7.55;;;;;;;;;;4993316;28;20042;-73
2022/09/04 10:14:17;;;;;;;20.75;8.85;;;;;;;;;;5003788;28;20390;-73
2022/09/04 10:17:40;;;;;;;14.15;7.63;;;;;;;;;;4993166;28;20512;-73
2022/09/04 10:21:00;;;;;;;21.80;9.27;;;;;;;;;;4993811;28;20054;-73
2022/09/04 10:24:22;;;;;;;15.70;8.40;;;;;;;;;;4992226;28;20051;-73
2022/09/04 10:27:33;;;;;;;17.77;8.32;;;;;;;;;;4992479;28;20402;-74
2022/09/04 10:30:37;;;;;;;15.25;8.02;;;;;;;;;;4992976;28;20042;-74
2022/09/04 10:33:44;;;;;;;15.90;8.80;;;;;;;;;;4991924;28;20050;-73
2022/09/04 10:36:58;;;;;;;12.32;7.82;;;;;;;;;;4992967;28;20038;-73
2022/09/04 10:40:34;;;;;;;16.77;8.30;;;;;;;;;;4992972;28;20517;-73
2022/09/04 10:43:52;;;;;;;16.30;9.63;;;;;;;;;;4992937;28;20041;-73
2022/09/04 10:47:05;;;;;;;20.25;9.90;;;;;;;;;;4992706;28;20517;-74
2022/09/04 10:50:24;;;;;;;15.60;9.35;;;;;;;;;;4992453;28;20051;-73
2022/09/04 10:53:28;;;;;;;14.52;8.95;;;;;;;;;;4992512;28;20043;-73
2022/09/04 10:56:53;;;;;;;15.13;8.63;;;;;;;;;;4992317;28;20034;-73
2022/09/04 10:59:57;;;;;;;16.88;8.73;;;;;;;;;;4996430;28;20394;-73
2022/09/04 11:03:02;;;;;;;16.95;11.23;;;;;;;;;;4992202;28;20042;-73
2022/09/04 11:06:25;;;;;;;17.13;10.32;;;;;;;;;;4992302;28;20469;-73
2022/09/04 11:09:48;;;;;;;16.58;7.75;;;;;;;;;;4979317;28;20041;-73
2022/09/04 11:13:02;;;;;;;18.92;8.32;;;;;;;;;;5002236;28;20043;-73
2022/09/04 11:16:17;;;;;;;19.27;9.93;;;;;;;;;;4992021;28;20049;-73
2022/09/04 11:19:31;;;;;;;16.60;8.88;;;;;;;;;;4992120;28;20053;-73
2022/09/04 11:22:35;;;;;;;19.98;9.57;;;;;;;;;;4991981;28;20042;-74
2022/09/04 11:25:43;;;;;;;18.50;10.82;;;;;;;;;;4992088;28;20525;-73
2022/09/04 11:29:09;;;;;;;19.38;8.88;;;;;;;;;;4991943;28;20045;-73
2022/09/04 11:32:14;;;;;;;19.10;9.52;;;;;;;;;;4991860;28;20045;-73
2022/09/04 11:35:25;;;;;;;16.75;9.02;;;;;;;;;;4991754;28;20497;-73
2022/09/04 11:38:37;;;;;;;18.33;9.55;;;;;;;;;;4991229;28;20034;-73
2022/09/04 11:42:00;;;;;;;15.25;9.02;;;;;;;;;;5002472;28;20065;-73
2022/09/04 11:45:19;;;;;;;15.57;10.43;;;;;;;;;;4991790;28;20049;-73
2022/09/04 11:48:47;;;;;;;19.85;9.38;;;;;;;;;;4991645;28;20045;-73
2022/09/04 11:51:54;;;;;;;17.30;9.65;;;;;;;;;;4991541;28;20051;-73
2022/09/04 11:54:59;;;;;;;17.05;8.57;;;;;;;;;;4991727;28;20394;-73
2022/09/04 11:58:13;;;;;;;18.10;9.60;;;;;;;;;;4991413;28;20038;-74
2022/09/04 12:01:30;;;;;;;15.82;8.15;;;;;;;;;;4990593;28;20045;-74
2022/09/04 12:04:34;;;;;;;20.17;8.45;;;;;;;;;;5001866;28;20053;-73
2022/09/04 12:07:45;;;;;;;16.02;9.40;;;;;;;;;;4990981;28;20038;-73
2022/09/04 12:11:09;;;;;;;18.05;9.45;;;;;;;;;;4991738;28;20034;-73
2022/09/04 12:14:46;;;;;;;18.67;9.40;;;;;;;;;;4991455;28;20501;-73
2022/09/04 12:18:03;;;;;;;22.50;8.82;;;;;;;;;;4995997;28;20506;-74
2022/09/04 12:21:26;;;;;;;16.88;8.75;;;;;;;;;;4992872;28;20046;-74
2022/09/04 12:24:31;;;;;;;11.57;7.10;;;;;;;;;;4995218;28;20060;-74
2022/09/04 12:27:41;;;;;;;11.77;6.70;;;;;;;;;;4995639;28;20054;-74
2022/09/04 12:30:47;;;;;;;13.63;5.70;;;;;;;;;;5005788;28;20490;-74
2022/09/04 12:34:10;;;;;;;16.60;4.60;;;;;;;;;;4994578;28;20050;-74
2022/09/04 12:37:18;;;;;;;11.15;4.25;;;;;;;;;;4995499;28;20050;-74
2022/09/04 12:40:28;;;;;;;13.45;4.50;;;;;;;;;;4993974;28;20506;-74
2022/09/04 12:43:32;;;;;;;22.25;9.27;;;;;;;;;;4993996;28;20043;-73
2022/09/04 12:46:54;;;;;;;10.77;3.40;;;;;;;;;;4994592;28;20457;-73
2022/09/04 12:50:19;;;;;;;7.40;2.72;;;;;;;;;;4995655;28;20489;-73
2022/09/04 12:53:31;;;;;;;7.85;2.22;;;;;;;;;;5000177;28;20038;-73
2022/09/04 12:56:44;;;;;;;6.55;2.08;;;;;;;;;;4995046;28;20050;-73
2022/09/04 13:00:04;;;;;;;12.20;2.78;;;;;;;;;;4995124;28;20375;-73
2022/09/04 13:03:08;;;;;;;6.70;3.00;;;;;;;;;;4994610;28;20422;-73
2022/09/04 13:06:18;;;;;;;7.07;3.08;;;;;;;;;;4994432;28;20058;-72
2022/09/04 13:09:41;;;;;;;9.57;2.88;;;;;;;;;;4995020;28;20038;-73
2022/09/04 13:12:56;;;;;;;10.80;3.10;;;;;;;;;;4994454;28;20046;-73
2022/09/04 13:16:16;;;;;;;11.07;2.92;;;;;;;;;;4994476;28;20038;-73
2022/09/04 13:19:27;;;;;;;13.15;4.28;;;;;;;;;;4994250;28;20050;-73
2022/09/04 13:22:50;;;;;;;14.18;6.90;;;;;;;;;;4994353;28;20439;-73
2022/09/04 13:26:06;;;;;;;15.32;5.65;;;;;;;;;;4994227;28;20057;-73
2022/09/04 13:29:16;;;;;;;15.55;5.68;;;;;;;;;;4993378;28;20043;-73
2022/09/04 13:32:39;;;;;;;11.97;5.67;;;;;;;;;;5003546;28;20057;-73
2022/09/04 13:35:57;;;;;;;15.13;6.30;;;;;;;;;;4994330;28;20043;-73
2022/09/04 13:39:02;;;;;;;17.02;5.82;;;;;;;;;;4994001;28;20397;-73
2022/09/04 13:42:20;;;;;;;15.18;5.57;;;;;;;;;;4994104;28;20039;-73
2022/09/04 13:45:54;;;;;;;14.43;4.93;;;;;;;;;;4993801;28;20045;-72
2022/09/04 13:49:04;;;;;;;10.60;3.85;;;;;;;;;;4993888;28;20042;-72
2022/09/04 13:52:13;;;;;;;9.35;4.43;;;;;;;;;;4993224;28;20043;-73
2022/09/04 13:55:29;;;;;;;13.55;4.00;;;;;;;;;;5004386;28;20572;-73
2022/09/04 13:58:37;;;;;;;8.65;3.30;;;;;;;;;;4994618;28;20514;-70
2022/09/04 14:01:48;;;;;;;9.23;2.65;;;;;;;;;;4993017;28;20038;-72
2022/09/04 14:05:05;;;;;;;7.43;2.40;;;;;;;;;;5004236;28;20046;-72
2022/09/04 14:08:14;;;;;;;5.57;2.42;;;;;;;;;;5004287;28;20380;-70
2022/09/04 14:11:57;;;;;;;7.63;2.22;;;;;;;;;;5004380;28;20034;-70
2022/09/04 14:15:06;;;;;;;5.63;2.47;;;;;;;;;;5010761;28;20038;-73
2022/09/04 14:18:28;;;;;;;6.85;2.28;;;;;;;;;;4998482;28;20050;-71
2022/09/04 14:21:35;;;;;;;8.07;2.63;;;;;;;;;;5003583;28;20038;-73
2022/09/04 14:24:58;;;;;;;7.60;2.38;;;;;;;;;;4993195;28;20379;-71
2022/09/04 14:28:09;;;;;;;4.93;2.58;;;;;;;;;;4993068;28;20375;-73
2022/09/04 14:31:13;;;;;;;4.70;2.03;;;;;;;;;;5003827;28;20042;-73
2022/09/04 14:34:36;;;;;;;6.95;2.30;;;;;;;;;;4993110;28;20046;-71
2022/09/04 14:37:45;;;;;;;6.03;2.65;;;;;;;;;;4992862;28;20383;-71
2022/09/04 14:40:55;;;;;;;6.22;2.78;;;;;;;;;;4992870;28;20046;-71
2022/09/04 14:44:06;;;;;;;6.85;2.35;;;;;;;;;;4992481;28;20042;-70
2022/09/04 14:47:33;;;;;;;7.15;2.55;;;;;;;;;;4992831;28;20050;-72
2022/09/04 14:50:47;;;;;;;4.72;2.30;;;;;;;;;;4992845;28;20042;-71
2022/09/04 14:53:55;;;;;;;5.72;2.22;;;;;;;;;;4992222;28;20049;-71
2022/09/04 14:57:18;;;;;;;8.00;2.10;;;;;;;;;;4992652;28;20042;-73
2022/09/04 15:00:23;;;;;;;4.47;2.05;;;;;;;;;;4992868;28;20050;-71
2022/09/04 15:03:34;;;;;;;5.00;1.98;;;;;;;;;;4992488;28;20035;-71
2022/09/04 15:06:43;;;;;;;3.30;2.00;;;;;;;;;;4990998;28;20186;-71
2022/09/04 15:09:49;;;;;;;2.92;1.60;;;;;;;;;;4990593;28;20034;-71
2022/09/04 15:12:53;;;;;;;5.18;2.40;;;;;;;;;;4990439;28;20038;-70
2022/09/04 15:15:58;;;;;;;2.70;2.08;;;;;;;;;;4990753;28;20038;-71
2022/09/04 15:19:23;;;;;;;4.28;1.92;;;;;;;;;;4992086;28;20054;-71
2022/09/04 15:22:27;;;;;;;2.95;2.00;;;;;;;;;;4992559;28;20474;-71
2022/09/04 15:25:44;;;;;;;7.20;2.10;;;;;;;;;;5002693;28;20042;-71
2022/09/04 15:28:50;;;;;;;3.83;2.13;;;;;;;;;;4992398;28;20038;-71
2022/09/04 15:31:59;;;;;;;3.95;2.03;;;;;;;;;;4992252;28;20046;-71
2022/09/04 15:35:11;;;;;;;4.05;2.15;;;;;;;;;;4991929;28;20042;-71
2022/09/04 15:38:19;;;;;;;4.38;2.00;;;;;;;;;;4992129;28;20482;-71
2022/09/04 15:41:57;;;;;;;3.50;2.00;;;;;;;;;;4991741;28;20042;-71
2022/09/04 15:45:07;;;;;;;3.67;2.05;;;;;;;;;;4996380;28;20034;-71
2022/09/04 15:48:20;;;;;;;5.10;2.70;;;;;;;;;;4991634;28;20046;-71
2022/09/04 15:51:36;;;;;;;4.57;2.42;;;;;;;;;;4992057;28;20473;-72
2022/09/04 15:54:41;;;;;;;4.50;2.30;;;;;;;;;;4991254;28;20050;-72
2022/09/04 15:57:46;;;;;;;5.78;2.47;;;;;;;;;;4991540;28;20034;-72
2022/09/04 16:01:05;;;;;;;3.28;1.90;;;;;;;;;;4991593;28;20371;-72
2022/09/04 16:04:22;;;;;;;3.75;2.15;;;;;;;;;;4991510;28;20042;-72
2022/09/04 16:07:33;;;;;;;3.35;2.05;;;;;;;;;;5001848;28;20038;-72
2022/09/04 16:10:37;;;;;;;;;;;;;;;;;;4992063;28;20046;-72
2022/09/04 16:14:01;;;;;;;4.13;2.45;;;;;;;;;;4990729;28;19925;-72
2022/09/04 16:17:10;;;;;;;3.55;2.15;;;;;;;;;;4991397;28;20038;-71
2022/09/04 16:20:20;;;;;;;4.00;2.33;;;;;;;;;;4991619;28;20042;-72
2022/09/04 16:23:30;;;;;;;5.25;2.10;;;;;;;;;;4991042;28;20039;-72
2022/09/04 16:26:34;;;;;;;4.70;2.13;;;;;;;;;;4991246;28;20042;-72
2022/09/04 16:29:50;;;;;;;6.35;2.42;;;;;;;;;;4991228;28;20035;-71
2022/09/04 16:32:54;;;;;;;4.85;2.42;;;;;;;;;;4990464;28;20042;-72
2022/09/04 16:36:02;;;;;;;2.55;2.08;;;;;;;;;;4991580;28;20042;-72
2022/09/04 16:39:19;;;;;;;8.10;2.10;;;;;;;;;;4991149;28;20046;-72
2022/09/04 16:42:46;;;;;;;4.00;2.17;;;;;;;;;;4990939;28;20050;-72
2022/09/04 16:45:59;;;;;;;5.38;2.90;;;;;;;;;;4990944;28;20046;-72
2022/09/04 16:49:07;;;;;;;4.03;2.30;;;;;;;;;;4990727;28;20038;-72
2022/09/04 16:52:42;;;;;;;3.80;2.85;;;;;;;;;;4991247;28;20050;-71
2022/09/04 16:55:51;;;;;;;7.93;2.95;;;;;;;;;;4991331;28;20043;-71
2022/09/04 16:59:00;;;;;;;6.88;3.00;;;;;;;;;;4990738;28;20038;-72
2022/09/04 17:02:19;;;;;;;4.28;2.92;;;;;;;;;;4990795;28;20483;-71
2022/09/04 17:05:24;;;;;;;4.72;3.22;;;;;;;;;;4990922;28;20034;-71
2022/09/04 17:08:34;;;;;;;8.15;2.95;;;;;;;;;;4994170;28;20395;-71
2022/09/04 17:11:50;;;;;;;5.85;3.17;;;;;;;;;;4994520;28;20038;-71
2022/09/04 17:14:59;;;;;;;8.70;3.17;;;;;;;;;;4993479;28;20046;-71
2022/09/04 17:18:08;;;;;;;5.03;2.65;;;;;;;;;;5003235;28;20050;-71
2022/09/04 17:25:02;;;;;;;4.13;2.90;;;;;;;;;;4994430;28;20042;-71
2022/09/04 17:28:10;;;;;;;6.35;3.40;;;;;;;;;;4994089;28;20054;-71
2022/09/04 17:31:28;;;;;;;6.10;3.67;;;;;;;;;;4994433;28;20371;-72
2022/09/04 17:34:42;;;;;;;8.88;3.90;;;;;;;;;;4992950;28;20042;-71
2022/09/04 17:37:58;;;;;;;5.97;4.05;;;;;;;;;;4994133;28;20038;-72
2022/09/04 17:41:15;;;;;;;7.50;3.45;;;;;;;;;;5004295;28;20030;-71
2022/09/04 17:44:24;;;;;;;7.05;3.78;;;;;;;;;;4994018;28;20050;-71
2022/09/04 17:47:33;;;;;;;6.97;4.07;;;;;;;;;;4994399;28;20038;-71
2022/09/04 17:50:45;;;;;;;11.55;4.43;;;;;;;;;;4993776;28;20034;-71
2022/09/04 17:53:52;;;;;;;9.77;4.28;;;;;;;;;;5003938;28;20050;-71
2022/09/04 17:57:09;;;;;;;10.05;4.80;;;;;;;;;;4993310;28;20042;-71
2022/09/04 18:00:19;;;;;;;14.52;6.25;;;;;;;;;;4993791;28;20039;-71
2022/09/04 18:03:28;;;;;;;7.93;4.97;;;;;;;;;;4992568;28;20391;-71
2022/09/04 18:06:38;;;;;;;14.20;5.30;;;;;;;;;;4992717;28;20054;-71
2022/09/04 18:09:43;;;;;;;7.63;4.38;;;;;;;;;;5003853;28;20049;-71
2022/09/04 18:12:51;;;;;;;7.55;4.90;;;;;;;;;;4993278;28;20486;-72
2022/09/04 18:16:01;;;;;;;14.82;4.70;;;;;;;;;;4992689;28;20042;-71
2022/09/04 18:19:09;;;;;;;10.27;4.30;;;;;;;;;;5002841;28;20046;-72
2022/09/04 18:22:27;;;;;;;12.38;4.85;;;;;;;;;;4993323;28;20045;-71
2022/09/04 18:25:43;;;;;;;8.38;5.10;;;;;;;;;;4992174;28;20050;-71
2022/09/04 18:28:53;;;;;;;9.82;5.55;;;;;;;;;;4992921;28;20035;-72
2022/09/04 18:32:05;;;;;;;12.23;5.30;;;;;;;;;;4993354;28;20363;-72
2022/09/04 18:35:09;;;;;;;11.30;5.45;;;;;;;;;;4993115;28;20034;-72
2022/09/04 18:38:19;;;;;;;12.32;5.40;;;;;;;;;;4991855;28;20043;-72
2022/09/04 18:41:30;;;;;;;11.40;5.97;;;;;;;;;;5003493;28;20042;-72
2022/09/04 18:44:58;;;;;;;9.15;5.28;;;;;;;;;;4992779;28;20394;-72
2022/09/04 18:48:04;;;;;;;7.72;5.00;;;;;;;;;;4996421;28;20383;-72
2022/09/04 18:51:30;;;;;;;10.02;5.05;;;;;;;;;;4992353;28;20035;-72
2022/09/04 18:54:41;;;;;;;11.73;4.80;;;;;;;;;;4992236;28;20042;-72
2022/09/04 18:57:51;;;;;;;13.77;5.63;;;;;;;;;;4992491;28;20042;-72
2022/09/04 19:01:08;;;;;;;11.02;6.90;;;;;;;;;;4992420;28;20514;-72
2022/09/04 19:04:15;;;;;;;9.20;6.00;;;;;;;;;;4992279;28;20045;-72
2022/09/04 19:07:33;;;;;;;23.10;11.75;;;;;;;;;;4991850;28;20050;-72
2022/09/04 19:10:46;;;;;;;20.05;10.90;;;;;;;;;;4991981;28;20065;-72
2022/09/04 19:13:58;;;;;;;22.20;14.35;;;;;;;;;;4992008;28;20052;-72